sensor_id;sensor_type;location;lat;lon;timestamp;pressure;altitude;pressure_sealevel;temperature;humidity
40992;BME280;29633;49.168;9.848;2023-08-08T00:00:19;96961.97;;;18.30;71.05
40992;BME280;29633;49.168;9.848;2023-08-08T00:02:44;96957.84;;;18.28;71.08
40992;BME280;29633;49.168;9.848;2023-08-08T00:05:10;96960.66;;;18.26;71.22
40992;BME280;29633;49.168;9.848;2023-08-08T00:07:36;96960.00;;;18.24;71.25
40992;BME280;29633;49.168;9.848;2023-08-08T00:10:01;96961.97;;;18.22;71.44
40992;BME280;29633;49.168;9.848;2023-08-08T00:12:30;96951.63;;;18.20;71.36
40992;BME280;29633;49.168;9.848;2023-08-08T00:14:55;96963.94;;;18.20;71.48
40992;BME280;29633;49.168;9.848;2023-08-08T00:17:21;96959.50;;;18.20;71.21
40992;BME280;29633;49.168;9.848;2023-08-08T00:19:47;96949.19;;;18.19;71.24
40992;BME280;29633;49.168;9.848;2023-08-08T00:22:12;96957.22;;;18.17;71.65
40992;BME280;29633;49.168;9.848;2023-08-08T00:24:38;96955.91;;;18.13;71.35
40992;BME280;29633;49.168;9.848;2023-08-08T00:27:04;96955.41;;;18.10;71.63
40992;BME280;29633;49.168;9.848;2023-08-08T00:29:29;96953.78;;;18.09;71.66
40992;BME280;29633;49.168;9.848;2023-08-08T00:31:55;96953.97;;;18.07;71.60
40992;BME280;29633;49.168;9.848;2023-08-08T00:34:21;96954.94;;;18.06;71.69
40992;BME280;29633;49.168;9.848;2023-08-08T00:36:49;96960.19;;;18.06;71.36
40992;BME280;29633;49.168;9.848;2023-08-08T00:39:14;96947.06;;;18.06;71.48
40992;BME280;29633;49.168;9.848;2023-08-08T00:41:40;96950.19;;;18.10;71.38
40992;BME280;29633;49.168;9.848;2023-08-08T00:44:06;96957.06;;;18.11;71.37
40992;BME280;29633;49.168;9.848;2023-08-08T00:46:31;96950.34;;;18.08;71.28
40992;BME280;29633;49.168;9.848;2023-08-08T00:48:57;96948.53;;;18.09;71.32
40992;BME280;29633;49.168;9.848;2023-08-08T00:51:22;96946.91;;;18.08;71.14
40992;BME280;29633;49.168;9.848;2023-08-08T00:53:49;96949.53;;;18.08;71.28
40992;BME280;29633;49.168;9.848;2023-08-08T00:56:15;96947.56;;;18.10;71.13
40992;BME280;29633;49.168;9.848;2023-08-08T00:58:42;96946.72;;;18.09;71.21
40992;BME280;29633;49.168;9.848;2023-08-08T01:01:12;96945.91;;;18.09;71.45
40992;BME280;29633;49.168;9.848;2023-08-08T01:03:37;96945.13;;;18.08;71.07
40992;BME280;29633;49.168;9.848;2023-08-08T01:06:29;96941.31;;;18.11;71.16
40992;BME280;29633;49.168;9.848;2023-08-08T01:08:58;96938.69;;;18.11;70.95
40992;BME280;29633;49.168;9.848;2023-08-08T01:11:26;96940.66;;;18.09;71.08
40992;BME280;29633;49.168;9.848;2023-08-08T01:13:54;96941.66;;;18.08;71.01
40992;BME280;29633;49.168;9.848;2023-08-08T01:16:20;96941.81;;;18.06;71.16
40992;BME280;29633;49.168;9.848;2023-08-08T01:18:47;96950.50;;;18.07;70.93
40992;BME280;29633;49.168;9.848;2023-08-08T01:21:14;96950.50;;;18.07;71.01
40992;BME280;29633;49.168;9.848;2023-08-08T01:23:56;96947.06;;;18.06;70.82
40992;BME280;29633;49.168;9.848;2023-08-08T01:26:24;96941.19;;;18.04;70.97
40992;BME280;29633;49.168;9.848;2023-08-08T01:28:53;96931.50;;;18.05;71.04
40992;BME280;29633;49.168;9.848;2023-08-08T01:31:20;96929.03;;;18.03;71.10
40992;BME280;29633;49.168;9.848;2023-08-08T01:33:46;96930.19;;;18.01;71.06
40992;BME280;29633;49.168;9.848;2023-08-08T01:36:22;96924.94;;;18.01;71.02
40992;BME280;29633;49.168;9.848;2023-08-08T01:38:51;96924.94;;;18.01;71.16
40992;BME280;29633;49.168;9.848;2023-08-08T01:41:19;96917.72;;;18.03;70.98
40992;BME280;29633;49.168;9.848;2023-08-08T01:43:45;96914.94;;;18.04;71.36
40992;BME280;29633;49.168;9.848;2023-08-08T01:46:11;96918.88;;;18.00;70.95
40992;BME280;29633;49.168;9.848;2023-08-08T01:48:37;96914.47;;;18.01;71.13
40992;BME280;29633;49.168;9.848;2023-08-08T01:51:02;96915.28;;;18.01;71.16
40992;BME280;29633;49.168;9.848;2023-08-08T01:53:28;96916.06;;;18.02;70.92
40992;BME280;29633;49.168;9.848;2023-08-08T01:55:54;96912.66;;;18.01;70.84
40992;BME280;29633;49.168;9.848;2023-08-08T01:58:19;96905.75;;;18.00;70.90
40992;BME280;29633;49.168;9.848;2023-08-08T02:00:45;96911.16;;;17.99;70.86
40992;BME280;29633;49.168;9.848;2023-08-08T02:03:12;96912.13;;;17.98;71.05
40992;BME280;29633;49.168;9.848;2023-08-08T02:05:37;96913.97;;;17.97;70.96
40992;BME280;29633;49.168;9.848;2023-08-08T02:08:03;96914.75;;;17.98;70.87
40992;BME280;29633;49.168;9.848;2023-08-08T02:10:29;96918.38;;;17.97;71.07
40992;BME280;29633;49.168;9.848;2023-08-08T02:12:55;96918.38;;;17.97;71.02
40992;BME280;29633;49.168;9.848;2023-08-08T02:15:21;96916.41;;;17.99;71.10
40992;BME280;29633;49.168;9.848;2023-08-08T02:17:46;96913.16;;;17.97;70.83
40992;BME280;29633;49.168;9.848;2023-08-08T02:20:12;96910.34;;;17.98;70.98
40992;BME280;29633;49.168;9.848;2023-08-08T02:22:38;96912.66;;;18.01;70.99
40992;BME280;29633;49.168;9.848;2023-08-08T02:25:04;96911.84;;;18.01;70.89
40992;BME280;29633;49.168;9.848;2023-08-08T02:27:30;96909.22;;;18.01;70.93
40992;BME280;29633;49.168;9.848;2023-08-08T02:29:55;96912.47;;;18.03;70.83
40992;BME280;29633;49.168;9.848;2023-08-08T02:32:23;96905.09;;;17.98;71.23
40992;BME280;29633;49.168;9.848;2023-08-08T02:34:49;96911.34;;;17.97;70.97
40992;BME280;29633;49.168;9.848;2023-08-08T02:37:15;96907.72;;;17.98;71.10
40992;BME280;29633;49.168;9.848;2023-08-08T02:39:43;96907.06;;;17.96;70.91
40992;BME280;29633;49.168;9.848;2023-08-08T02:42:09;96906.25;;;17.96;70.96
40992;BME280;29633;49.168;9.848;2023-08-08T02:44:35;96901.16;;;17.94;71.15
40992;BME280;29633;49.168;9.848;2023-08-08T02:47:00;96903.78;;;17.94;71.05
40992;BME280;29633;49.168;9.848;2023-08-08T02:49:26;96904.59;;;17.95;70.99
40992;BME280;29633;49.168;9.848;2023-08-08T02:51:52;96909.03;;;17.94;70.96
40992;BME280;29633;49.168;9.848;2023-08-08T02:54:17;96904.59;;;17.95;71.07
40992;BME280;29633;49.168;9.848;2023-08-08T02:56:43;96912.81;;;17.92;71.19
40992;BME280;29633;49.168;9.848;2023-08-08T02:59:09;96909.84;;;17.95;71.01
40992;BME280;29633;49.168;9.848;2023-08-08T03:01:35;96914.59;;;17.91;71.15
40992;BME280;29633;49.168;9.848;2023-08-08T03:04:05;96902.66;;;17.89;71.07
40992;BME280;29633;49.168;9.848;2023-08-08T03:06:33;96902.00;;;17.87;71.08
40992;BME280;29633;49.168;9.848;2023-08-08T03:08:59;96903.63;;;17.88;70.98
40992;BME280;29633;49.168;9.848;2023-08-08T03:11:24;96906.09;;;17.89;71.17
40992;BME280;29633;49.168;9.848;2023-08-08T03:13:50;96907.75;;;17.90;70.95
40992;BME280;29633;49.168;9.848;2023-08-08T03:16:15;96907.75;;;17.90;71.05
40992;BME280;29633;49.168;9.848;2023-08-08T03:18:41;96902.31;;;17.92;71.00
40992;BME280;29633;49.168;9.848;2023-08-08T03:21:07;96905.28;;;17.89;70.96
40992;BME280;29633;49.168;9.848;2023-08-08T03:23:32;96911.34;;;17.89;71.13
40992;BME280;29633;49.168;9.848;2023-08-08T03:25:58;96910.53;;;17.89;70.90
40992;BME280;29633;49.168;9.848;2023-08-08T03:28:24;96911.34;;;17.89;71.07
40992;BME280;29633;49.168;9.848;2023-08-08T03:30:50;96906.09;;;17.89;70.94
40992;BME280;29633;49.168;9.848;2023-08-08T03:33:15;96906.09;;;17.89;70.77
40992;BME280;29633;49.168;9.848;2023-08-08T03:35:41;96906.25;;;17.88;71.15
40992;BME280;29633;49.168;9.848;2023-08-08T03:38:09;96909.69;;;17.88;71.04
40992;BME280;29633;49.168;9.848;2023-08-08T03:40:35;96903.47;;;17.89;71.05
40992;BME280;29633;49.168;9.848;2023-08-08T03:43:00;96908.88;;;17.88;70.95
40992;BME280;29633;49.168;9.848;2023-08-08T03:45:27;96901.19;;;17.86;70.95
40992;BME280;29633;49.168;9.848;2023-08-08T03:47:52;96903.97;;;17.85;71.20
40992;BME280;29633;49.168;9.848;2023-08-08T03:50:18;96899.69;;;17.84;70.98
40992;BME280;29633;49.168;9.848;2023-08-08T03:52:44;96900.69;;;17.83;71.07
40992;BME280;29633;49.168;9.848;2023-08-08T03:55:09;96895.59;;;17.81;71.18
40992;BME280;29633;49.168;9.848;2023-08-08T03:57:35;96897.25;;;17.82;71.08
40992;BME280;29633;49.168;9.848;2023-08-08T04:00:00;96906.91;;;17.82;71.20
40992;BME280;29633;49.168;9.848;2023-08-08T04:02:26;96909.69;;;17.80;71.02
40992;BME280;29633;49.168;9.848;2023-08-08T04:04:53;96903.97;;;17.77;71.11
40992;BME280;29633;49.168;9.848;2023-08-08T04:07:19;96905.94;;;17.75;71.24
40992;BME280;29633;49.168;9.848;2023-08-08T04:09:44;96902.66;;;17.73;71.25
40992;BME280;29633;49.168;9.848;2023-08-08T04:12:10;96903.81;;;17.70;71.22
40992;BME280;29633;49.168;9.848;2023-08-08T04:14:36;96912.81;;;17.67;71.30
40992;BME280;29633;49.168;9.848;2023-08-08T04:17:01;96908.41;;;17.60;71.24
40992;BME280;29633;49.168;9.848;2023-08-08T04:19:28;96906.94;;;17.57;71.31
40992;BME280;29633;49.168;9.848;2023-08-08T04:21:54;96912.16;;;17.57;71.25
40992;BME280;29633;49.168;9.848;2023-08-08T04:24:19;96912.47;;;17.54;71.15
40992;BME280;29633;49.168;9.848;2023-08-08T04:26:45;96909.50;;;17.49;71.47
40992;BME280;29633;49.168;9.848;2023-08-08T04:29:10;96913.28;;;17.47;71.43
40992;BME280;29633;49.168;9.848;2023-08-08T04:31:36;96905.41;;;17.47;71.38
40992;BME280;29633;49.168;9.848;2023-08-08T04:34:02;96910.66;;;17.47;71.08
40992;BME280;29633;49.168;9.848;2023-08-08T04:36:27;96913.91;;;17.41;71.18
40992;BME280;29633;49.168;9.848;2023-08-08T04:38:53;96918.31;;;17.40;71.24
40992;BME280;29633;49.168;9.848;2023-08-08T04:41:19;96914.56;;;17.35;71.42
40992;BME280;29633;49.168;9.848;2023-08-08T04:43:45;96917.34;;;17.33;71.39
40992;BME280;29633;49.168;9.848;2023-08-08T04:46:10;96915.03;;;17.30;71.15
40992;BME280;29633;49.168;9.848;2023-08-08T04:48:37;96912.09;;;17.25;71.44
40992;BME280;29633;49.168;9.848;2023-08-08T04:51:06;96919.47;;;17.30;71.32
40992;BME280;29633;49.168;9.848;2023-08-08T04:53:32;96915.72;;;17.32;71.27
40992;BME280;29633;49.168;9.848;2023-08-08T04:55:58;96913.75;;;17.34;71.32
40992;BME280;29633;49.168;9.848;2023-08-08T04:58:23;96914.22;;;17.38;71.35
40992;BME280;29633;49.168;9.848;2023-08-08T05:00:49;96914.91;;;17.40;71.32
40992;BME280;29633;49.168;9.848;2023-08-08T05:03:17;96917.19;;;17.43;71.23
40992;BME280;29633;49.168;9.848;2023-08-08T05:05:42;96921.28;;;17.45;71.11
40992;BME280;29633;49.168;9.848;2023-08-08T05:08:11;96918.00;;;17.51;71.18
40992;BME280;29633;49.168;9.848;2023-08-08T05:10:36;96912.28;;;17.56;70.95
40992;BME280;29633;49.168;9.848;2023-08-08T05:13:02;96917.72;;;17.62;70.97
40992;BME280;29633;49.168;9.848;2023-08-08T05:15:28;96915.59;;;17.66;71.12
40992;BME280;29633;49.168;9.848;2023-08-08T05:17:54;96916.09;;;17.69;70.95
40992;BME280;29633;49.168;9.848;2023-08-08T05:20:21;96915.75;;;17.73;71.30
40992;BME280;29633;49.168;9.848;2023-08-08T05:22:47;96917.91;;;17.77;70.89
40992;BME280;29633;49.168;9.848;2023-08-08T05:25:13;96922.66;;;17.82;71.06
40992;BME280;29633;49.168;9.848;2023-08-08T05:27:39;96922.50;;;17.83;71.11
40992;BME280;29633;49.168;9.848;2023-08-08T05:30:05;96923.78;;;17.87;70.81
40992;BME280;29633;49.168;9.848;2023-08-08T05:32:31;96919.03;;;17.91;71.04
40992;BME280;29633;49.168;9.848;2023-08-08T05:34:57;96917.06;;;17.93;71.13
40992;BME280;29633;49.168;9.848;2023-08-08T05:37:24;96913.47;;;17.94;71.06
40992;BME280;29633;49.168;9.848;2023-08-08T05:39:49;96920.34;;;17.95;71.04
40992;BME280;29633;49.168;9.848;2023-08-08T05:42:15;96912.47;;;17.95;71.08
40992;BME280;29633;49.168;9.848;2023-08-08T05:44:41;96913.78;;;17.99;71.08
40992;BME280;29633;49.168;9.848;2023-08-08T05:47:10;96909.84;;;18.03;71.24
40992;BME280;29633;49.168;9.848;2023-08-08T05:49:36;96905.75;;;18.08;71.15
40992;BME280;29633;49.168;9.848;2023-08-08T05:52:01;96911.16;;;18.15;70.93
40992;BME280;29633;49.168;9.848;2023-08-08T05:54:27;96909.50;;;18.22;70.94
40992;BME280;29633;49.168;9.848;2023-08-08T05:56:53;96915.53;;;18.31;70.62
40992;BME280;29633;49.168;9.848;2023-08-08T05:59:19;96916.69;;;18.36;70.99
40992;BME280;29633;49.168;9.848;2023-08-08T06:01:45;96909.94;;;18.42;71.08
40992;BME280;29633;49.168;9.848;2023-08-08T06:04:12;96906.81;;;18.46;70.73
40992;BME280;29633;49.168;9.848;2023-08-08T06:06:37;96916.66;;;18.52;71.10
40992;BME280;29633;49.168;9.848;2023-08-08T06:09:03;96911.09;;;18.55;70.84
40992;BME280;29633;49.168;9.848;2023-08-08T06:11:29;96905.31;;;18.60;71.04
40992;BME280;29633;49.168;9.848;2023-08-08T06:13:55;96910.56;;;18.60;70.98
40992;BME280;29633;49.168;9.848;2023-08-08T06:16:21;96906.44;;;18.65;71.03
40992;BME280;29633;49.168;9.848;2023-08-08T06:18:47;96910.38;;;18.70;71.09
40992;BME280;29633;49.168;9.848;2023-08-08T06:21:15;96904.78;;;18.73;71.02
40992;BME280;29633;49.168;9.848;2023-08-08T06:23:40;96911.97;;;18.79;70.95
40992;BME280;29633;49.168;9.848;2023-08-08T06:26:06;96910.00;;;18.81;70.98
40992;BME280;29633;49.168;9.848;2023-08-08T06:28:32;96910.66;;;18.83;70.99
40992;BME280;29633;49.168;9.848;2023-08-08T06:30:58;96898.97;;;18.85;71.21
40992;BME280;29633;49.168;9.848;2023-08-08T06:33:24;96901.09;;;18.90;71.28
40992;BME280;29633;49.168;9.848;2023-08-08T06:35:49;96900.38;;;18.96;71.34
40992;BME280;29633;49.168;9.848;2023-08-08T06:38:15;96910.22;;;19.02;71.31
40992;BME280;29633;49.168;9.848;2023-08-08T06:40:41;96906.91;;;19.08;71.09
40992;BME280;29633;49.168;9.848;2023-08-08T06:43:06;96908.03;;;19.13;71.13
40992;BME280;29633;49.168;9.848;2023-08-08T06:45:32;96894.84;;;19.22;70.92
40992;BME280;29633;49.168;9.848;2023-08-08T06:47:58;96902.03;;;19.28;70.95
40992;BME280;29633;49.168;9.848;2023-08-08T06:50:23;96902.78;;;19.36;71.04
40992;BME280;29633;49.168;9.848;2023-08-08T06:52:50;96900.50;;;19.41;71.08
40992;BME280;29633;49.168;9.848;2023-08-08T06:55:16;96898.81;;;19.48;71.13
40992;BME280;29633;49.168;9.848;2023-08-08T06:57:42;96898.75;;;19.56;70.91
40992;BME280;29633;49.168;9.848;2023-08-08T07:00:08;96892.78;;;19.62;71.03
40992;BME280;29633;49.168;9.848;2023-08-08T07:02:34;96898.50;;;19.66;71.04
40992;BME280;29633;49.168;9.848;2023-08-08T07:05:00;96897.78;;;19.72;71.10
40992;BME280;29633;49.168;9.848;2023-08-08T07:07:25;96888.56;;;19.76;70.95
40992;BME280;29633;49.168;9.848;2023-08-08T07:09:51;96896.38;;;19.84;71.07
40992;BME280;29633;49.168;9.848;2023-08-08T07:12:17;96891.22;;;19.91;71.14
40992;BME280;29633;49.168;9.848;2023-08-08T07:14:43;96892.34;;;19.96;70.96
40992;BME280;29633;49.168;9.848;2023-08-08T07:17:08;96892.78;;;20.00;71.01
40992;BME280;29633;49.168;9.848;2023-08-08T07:19:35;96888.44;;;20.07;71.27
40992;BME280;29633;49.168;9.848;2023-08-08T07:22:01;96889.38;;;20.14;71.10
40992;BME280;29633;49.168;9.848;2023-08-08T07:24:27;96890.44;;;20.20;70.84
40992;BME280;29633;49.168;9.848;2023-08-08T07:26:58;96892.38;;;20.26;71.14
40992;BME280;29633;49.168;9.848;2023-08-08T07:29:24;96888.84;;;20.33;70.85
40992;BME280;29633;49.168;9.848;2023-08-08T07:31:52;96881.84;;;20.40;71.02
40992;BME280;29633;49.168;9.848;2023-08-08T07:34:17;96876.34;;;20.50;71.07
40992;BME280;29633;49.168;9.848;2023-08-08T07:36:43;96884.94;;;20.58;70.91
40992;BME280;29633;49.168;9.848;2023-08-08T07:39:09;96876.78;;;20.68;70.89
40992;BME280;29633;49.168;9.848;2023-08-08T07:41:34;96880.94;;;20.77;70.83
40992;BME280;29633;49.168;9.848;2023-08-08T07:44:00;96878.38;;;20.84;70.80
40992;BME280;29633;49.168;9.848;2023-08-08T07:46:26;96877.28;;;20.93;70.63
40992;BME280;29633;49.168;9.848;2023-08-08T07:48:51;96877.19;;;21.01;70.42
40992;BME280;29633;49.168;9.848;2023-08-08T07:51:17;96871.31;;;21.05;70.44
40992;BME280;29633;49.168;9.848;2023-08-08T07:53:43;96876.25;;;21.08;70.28
40992;BME280;29633;49.168;9.848;2023-08-08T07:56:08;96877.88;;;21.09;70.43
40992;BME280;29633;49.168;9.848;2023-08-08T07:58:34;96884.25;;;21.15;70.40
40992;BME280;29633;49.168;9.848;2023-08-08T08:00:59;96870.25;;;21.15;70.88
40992;BME280;29633;49.168;9.848;2023-08-08T08:03:28;96878.63;;;21.18;70.67
40992;BME280;29633;49.168;9.848;2023-08-08T08:05:54;96878.28;;;21.28;70.39
40992;BME280;29633;49.168;9.848;2023-08-08T08:08:19;96875.38;;;21.37;69.97
40992;BME280;29633;49.168;9.848;2023-08-08T08:10:46;96883.13;;;21.45;70.02
40992;BME280;29633;49.168;9.848;2023-08-08T08:13:14;96879.66;;;21.59;70.16
40992;BME280;29633;49.168;9.848;2023-08-08T08:15:39;96878.50;;;21.69;70.01
40992;BME280;29633;49.168;9.848;2023-08-08T08:18:05;96878.38;;;21.77;69.74
40992;BME280;29633;49.168;9.848;2023-08-08T08:20:31;96877.59;;;21.83;69.94
40992;BME280;29633;49.168;9.848;2023-08-08T08:22:56;96877.66;;;21.89;70.04
40992;BME280;29633;49.168;9.848;2023-08-08T08:25:22;96880.56;;;21.94;69.91
40992;BME280;29633;49.168;9.848;2023-08-08T08:27:48;96874.47;;;21.94;69.99
40992;BME280;29633;49.168;9.848;2023-08-08T08:30:13;96867.00;;;21.97;69.71
40992;BME280;29633;49.168;9.848;2023-08-08T08:32:40;96869.06;;;22.02;69.96
40992;BME280;29633;49.168;9.848;2023-08-08T08:35:06;96875.19;;;22.09;69.61
40992;BME280;29633;49.168;9.848;2023-08-08T08:37:33;96868.09;;;22.10;69.90
40992;BME280;29633;49.168;9.848;2023-08-08T08:39:59;96868.50;;;22.06;69.77
40992;BME280;29633;49.168;9.848;2023-08-08T08:42:26;96875.94;;;22.03;69.97
40992;BME280;29633;49.168;9.848;2023-08-08T08:44:55;96879.63;;;22.02;69.94
40992;BME280;29633;49.168;9.848;2023-08-08T08:47:22;96864.22;;;22.05;69.80
40992;BME280;29633;49.168;9.848;2023-08-08T08:49:49;96866.28;;;22.10;69.55
40992;BME280;29633;49.168;9.848;2023-08-08T08:52:15;96871.13;;;22.06;69.48
40992;BME280;29633;49.168;9.848;2023-08-08T08:54:41;96869.88;;;22.02;69.57
40992;BME280;29633;49.168;9.848;2023-08-08T08:57:07;96873.69;;;22.00;69.47
40992;BME280;29633;49.168;9.848;2023-08-08T08:59:34;96871.06;;;22.00;69.58
40992;BME280;29633;49.168;9.848;2023-08-08T09:02:00;96875.53;;;21.99;69.55
40992;BME280;29633;49.168;9.848;2023-08-08T09:04:28;96876.78;;;22.03;69.27
40992;BME280;29633;49.168;9.848;2023-08-08T09:06:54;96868.84;;;22.03;69.21
40992;BME280;29633;49.168;9.848;2023-08-08T09:09:20;96864.81;;;22.07;69.26
40992;BME280;29633;49.168;9.848;2023-08-08T09:11:51;96869.97;;;22.16;69.37
40992;BME280;29633;49.168;9.848;2023-08-08T09:14:20;96866.75;;;22.20;69.27
40992;BME280;29633;49.168;9.848;2023-08-08T09:16:47;96868.75;;;22.18;69.06
40992;BME280;29633;49.168;9.848;2023-08-08T09:19:15;96865.09;;;22.19;69.19
40992;BME280;29633;49.168;9.848;2023-08-08T09:21:43;96863.72;;;22.23;69.01
40992;BME280;29633;49.168;9.848;2023-08-08T09:24:09;96858.63;;;22.22;68.92
40992;BME280;29633;49.168;9.848;2023-08-08T09:26:35;96858.44;;;22.23;69.13
40992;BME280;29633;49.168;9.848;2023-08-08T09:29:02;96859.44;;;22.22;69.20
40992;BME280;29633;49.168;9.848;2023-08-08T09:31:28;96848.72;;;22.30;68.69
40992;BME280;29633;49.168;9.848;2023-08-08T09:33:55;96852.41;;;22.36;68.73
40992;BME280;29633;49.168;9.848;2023-08-08T09:36:22;96855.88;;;22.36;68.85
40992;BME280;29633;49.168;9.848;2023-08-08T09:38:49;96857.50;;;22.37;68.63
40992;BME280;29633;49.168;9.848;2023-08-08T09:41:15;96854.69;;;22.39;68.89
40992;BME280;29633;49.168;9.848;2023-08-08T09:43:45;96862.78;;;22.37;68.64
40992;BME280;29633;49.168;9.848;2023-08-08T09:46:12;96851.78;;;22.34;68.64
40992;BME280;29633;49.168;9.848;2023-08-08T09:48:39;96851.97;;;22.32;68.81
40992;BME280;29633;49.168;9.848;2023-08-08T09:51:06;96849.97;;;22.34;68.48
40992;BME280;29633;49.168;9.848;2023-08-08T09:53:32;96864.03;;;22.41;68.57
40992;BME280;29633;49.168;9.848;2023-08-08T09:55:59;96856.31;;;22.46;68.38
40992;BME280;29633;49.168;9.848;2023-08-08T09:58:25;96855.13;;;22.49;68.23
40992;BME280;29633;49.168;9.848;2023-08-08T10:00:51;96849.28;;;22.53;68.19
40992;BME280;29633;49.168;9.848;2023-08-08T10:03:17;96847.84;;;22.57;68.25
40992;BME280;29633;49.168;9.848;2023-08-08T10:05:44;96842.97;;;22.61;68.34
40992;BME280;29633;49.168;9.848;2023-08-08T10:08:10;96845.03;;;22.66;67.98
40992;BME280;29633;49.168;9.848;2023-08-08T10:10:36;96844.31;;;22.72;67.90
40992;BME280;29633;49.168;9.848;2023-08-08T10:13:03;96846.97;;;22.78;68.00
40992;BME280;29633;49.168;9.848;2023-08-08T10:15:28;96841.31;;;22.88;67.80
40992;BME280;29633;49.168;9.848;2023-08-08T10:17:57;96845.19;;;22.98;67.62
40992;BME280;29633;49.168;9.848;2023-08-08T10:20:26;96839.53;;;23.08;67.85
40992;BME280;29633;49.168;9.848;2023-08-08T10:22:53;96836.91;;;23.15;67.61
40992;BME280;29633;49.168;9.848;2023-08-08T10:25:24;96831.63;;;23.21;67.51
40992;BME280;29633;49.168;9.848;2023-08-08T10:28:05;96833.06;;;23.24;67.29
40992;BME280;29633;49.168;9.848;2023-08-08T10:30:56;96831.03;;;23.26;67.09
40992;BME280;29633;49.168;9.848;2023-08-08T10:33:24;96841.41;;;23.27;67.17
40992;BME280;29633;49.168;9.848;2023-08-08T10:35:57;96840.59;;;23.33;66.96
40992;BME280;29633;49.168;9.848;2023-08-08T10:38:38;96843.66;;;23.37;66.97
40992;BME280;29633;49.168;9.848;2023-08-08T10:41:05;96833.72;;;23.45;66.91
40992;BME280;29633;49.168;9.848;2023-08-08T10:43:30;96841.47;;;23.53;66.91
40992;BME280;29633;49.168;9.848;2023-08-08T10:46:00;96828.66;;;23.57;67.03
40992;BME280;29633;49.168;9.848;2023-08-08T10:48:26;96834.75;;;23.64;66.76
40992;BME280;29633;49.168;9.848;2023-08-08T10:50:57;96837.63;;;23.69;66.88
40992;BME280;29633;49.168;9.848;2023-08-08T10:53:29;96816.03;;;23.79;66.52
40992;BME280;29633;49.168;9.848;2023-08-08T10:56:02;96822.72;;;23.88;66.12
40992;BME280;29633;49.168;9.848;2023-08-08T10:58:38;96833.13;;;23.96;66.47
40992;BME280;29633;49.168;9.848;2023-08-08T11:01:04;96823.94;;;23.98;66.50
40992;BME280;29633;49.168;9.848;2023-08-08T11:03:35;96821.69;;;24.02;66.54
40992;BME280;29633;49.168;9.848;2023-08-08T11:06:02;96820.50;;;24.05;66.24
40992;BME280;29633;49.168;9.848;2023-08-08T11:08:32;96829.44;;;24.10;66.27
40992;BME280;29633;49.168;9.848;2023-08-08T11:10:59;96820.91;;;24.15;66.19
40992;BME280;29633;49.168;9.848;2023-08-08T11:13:25;96818.03;;;24.23;65.95
40992;BME280;29633;49.168;9.848;2023-08-08T11:15:51;96819.66;;;24.24;65.76
40992;BME280;29633;49.168;9.848;2023-08-08T11:18:16;96816.00;;;24.25;66.17
40992;BME280;29633;49.168;9.848;2023-08-08T11:20:42;96814.97;;;24.26;65.85
40992;BME280;29633;49.168;9.848;2023-08-08T11:23:09;96809.69;;;24.26;65.78
40992;BME280;29633;49.168;9.848;2023-08-08T11:25:36;96822.28;;;24.24;65.79
40992;BME280;29633;49.168;9.848;2023-08-08T11:28:02;96820.88;;;24.21;65.74
40992;BME280;29633;49.168;9.848;2023-08-08T11:30:34;96821.72;;;24.15;65.65
40992;BME280;29633;49.168;9.848;2023-08-08T11:33:00;96815.41;;;24.16;65.63
40992;BME280;29633;49.168;9.848;2023-08-08T11:35:26;96806.00;;;24.20;65.67
40992;BME280;29633;49.168;9.848;2023-08-08T11:37:56;96813.34;;;24.25;65.57
40992;BME280;29633;49.168;9.848;2023-08-08T11:40:23;96804.16;;;24.27;65.23
40992;BME280;29633;49.168;9.848;2023-08-08T11:42:53;96800.66;;;24.40;65.38
40992;BME280;29633;49.168;9.848;2023-08-08T11:45:19;96801.25;;;24.42;65.28
40992;BME280;29633;49.168;9.848;2023-08-08T11:47:49;96807.56;;;24.47;65.04
40992;BME280;29633;49.168;9.848;2023-08-08T11:50:15;96805.31;;;24.51;65.25
40992;BME280;29633;49.168;9.848;2023-08-08T11:52:42;96799.19;;;24.50;65.21
40992;BME280;29633;49.168;9.848;2023-08-08T11:55:11;96797.94;;;24.53;65.14
40992;BME280;29633;49.168;9.848;2023-08-08T11:57:38;96803.44;;;24.58;65.08
40992;BME280;29633;49.168;9.848;2023-08-08T12:00:06;96807.31;;;24.62;65.18
40992;BME280;29633;49.168;9.848;2023-08-08T12:02:35;96796.47;;;24.64;65.10
40992;BME280;29633;49.168;9.848;2023-08-08T12:05:07;96801.19;;;24.62;64.87
40992;BME280;29633;49.168;9.848;2023-08-08T12:07:35;96800.19;;;24.63;65.02
40992;BME280;29633;49.168;9.848;2023-08-08T12:10:03;96809.34;;;24.67;64.79
40992;BME280;29633;49.168;9.848;2023-08-08T12:12:31;96812.59;;;24.69;64.75
40992;BME280;29633;49.168;9.848;2023-08-08T12:15:03;96813.00;;;24.66;64.97
40992;BME280;29633;49.168;9.848;2023-08-08T12:17:29;96813.81;;;24.66;64.57
40992;BME280;29633;49.168;9.848;2023-08-08T12:19:58;96819.94;;;24.67;64.73
40992;BME280;29633;49.168;9.848;2023-08-08T12:22:24;96812.78;;;24.67;64.66
40992;BME280;29633;49.168;9.848;2023-08-08T12:24:49;96812.00;;;24.67;64.32
40992;BME280;29633;49.168;9.848;2023-08-08T12:27:15;96811.81;;;24.62;64.59
40992;BME280;29633;49.168;9.848;2023-08-08T12:29:40;96812.22;;;24.59;64.42
40992;BME280;29633;49.168;9.848;2023-08-08T12:32:06;96819.56;;;24.57;64.40
40992;BME280;29633;49.168;9.848;2023-08-08T12:34:34;96814.25;;;24.57;64.45
40992;BME280;29633;49.168;9.848;2023-08-08T12:37:00;96812.81;;;24.61;64.36
40992;BME280;29633;49.168;9.848;2023-08-08T12:39:26;96816.28;;;24.61;64.28
40992;BME280;29633;49.168;9.848;2023-08-08T12:41:51;96821.59;;;24.61;64.24
40992;BME280;29633;49.168;9.848;2023-08-08T12:44:17;96812.38;;;24.64;64.00
40992;BME280;29633;49.168;9.848;2023-08-08T12:46:43;96814.03;;;24.65;64.13
40992;BME280;29633;49.168;9.848;2023-08-08T12:49:08;96814.66;;;24.60;64.33
40992;BME280;29633;49.168;9.848;2023-08-08T12:51:34;96814.66;;;24.60;63.86
40992;BME280;29633;49.168;9.848;2023-08-08T12:53:59;96807.94;;;24.58;63.98
40992;BME280;29633;49.168;9.848;2023-08-08T12:56:25;96808.75;;;24.58;63.89